This is the latest recevied weather packets stored in our database for station/object SV9TNF-51. If no packets are shown the sender has not sent any weather packets the latest 10 day(s).
| Time | Temp. | Humidity | Pressure | Rain* | Wind** | Luminosity | Snow |
|---|---|---|---|---|---|---|---|
| 1788359327 | 31.67° C | 48% | 1011.2 hPa | 0 mm | 7.15 m/s, 324° | - | - |
| 1788359027 | 32.22° C | 46% | 1011.2 hPa | 0 mm | 8.05 m/s, 42° | - | - |
| 1788358728 | 32.78° C | 44% | 1011.2 hPa | 0 mm | 4.47 m/s, 337° | - | - |
| 1788358427 | 32.78° C | 42% | 1011.2 hPa | 0 mm | 10.28 m/s, 98° | - | - |
| 1788358127 | 33.89° C | 41% | 1011.2 hPa | 0 mm | 4.92 m/s, 304° | - | - |
| 1788357827 | 33.33° C | 44% | 1011.2 hPa | 0 mm | 0.89 m/s, 123° | - | - |
| 1788357530 | 32.78° C | 48% | 1011.2 hPa | 0 mm | 4.02 m/s, 281° | - | - |
| 1788357227 | 33.33° C | 45% | 1011.2 hPa | 0 mm | 4.92 m/s, 127° | - | - |
| 1788356927 | 33.33° C | 45% | 1011.2 hPa | 0 mm | 8.05 m/s, 347° | - | - |
| 1788356626 | 33.33° C | 41% | 1011.2 hPa | 0 mm | 4.92 m/s, 349° | - | - |
| 1788356326 | 33.33° C | 42% | 1011.2 hPa | 0 mm | 8.49 m/s, 357° | - | - |
| 1788356026 | 33.33° C | 43% | 1011.2 hPa | 0 mm | 6.71 m/s, 331° | - | - |
| 1788355726 | 34.44° C | 42% | 1011.2 hPa | 0 mm | 8.05 m/s, 332° | - | - |
| 1788355426 | 34.44° C | 42% | 1011.2 hPa | 0 mm | 1.34 m/s, 83° | - | - |
| 1788355126 | 34.44° C | 43% | 1011.2 hPa | 0 mm | 2.24 m/s, 332° | - | - |
| 1788354826 | 33.33° C | 46% | 1011.2 hPa | 0 mm | 1.79 m/s, 132° | - | - |
| 1788354526 | 32.78° C | 45% | 1011.5 hPa | 0 mm | 10.73 m/s, 355° | - | - |
| 1788354226 | 33.33° C | 46% | 1011.5 hPa | 0 mm | 3.13 m/s, 156° | - | - |
| 1788353925 | 33.33° C | 46% | 1011.5 hPa | 0 mm | 8.05 m/s, 330° | - | - |
| 1788353626 | 34.44° C | 42% | 1011.5 hPa | 0 mm | 1.79 m/s, 131° | - | - |
| 1788353325 | 33.89° C | 42% | 1011.5 hPa | 0 mm | 10.28 m/s, 322° | - | - |
| 1788353025 | 35° C | 42% | 1011.5 hPa | 0 mm | 8.94 m/s, 110° | - | - |
| 1788352725 | 36.11° C | 38% | 1011.5 hPa | 0 mm | 0.89 m/s, 101° | - | - |
| 1788352425 | 35.56° C | 39% | 1011.5 hPa | 0 mm | 3.58 m/s, 132° | - | - |
| 1788352125 | 36.11° C | 37% | 1011.5 hPa | 0 mm | 0.89 m/s, 155° | - | - |
* Rain latest hour (hover to see other rain measurements)
** Current wind speed in m/s (hover to see current wind gust speed)